Time;durP1;ratioP1;P1;durP2;ratioP2;P2;SDS_P1;SDS_P2;PMS_P1;PMS_P2;Temp;Humidity;BMP_temperature;BMP_pressure;BME280_temperature;BME280_humidity;BME280_pressure;Samples;Min_cycle;Max_cycle;Signal;HPM_P1;HPM_P2
2023/11/19 00:00:11;;;;;;;0.70;0.70;;;;;;;7.07;89.61;98461.13;4982048;28;20031;-80
2023/11/19 00:02:37;;;;;;;0.70;0.70;;;;;;;7.07;89.95;98461.13;4981953;28;20050;-80
2023/11/19 00:05:02;;;;;;;0.70;0.70;;;;;;;7.07;89.88;98462.00;4981714;28;20584;-80
2023/11/19 00:07:28;;;;;;;0.70;0.70;;;;;;;7.06;90.20;98459.31;4983133;28;20046;-80
2023/11/19 00:09:55;;;;;;;0.70;0.70;;;;;;;7.08;90.03;98458.50;4980428;28;20030;-80
2023/11/19 00:12:20;;;;;;;0.70;0.70;;;;;;;7.07;90.68;98458.47;4982726;28;20037;-80
2023/11/19 00:14:46;;;;;;;0.70;0.70;;;;;;;7.11;90.71;98463.06;4979405;28;20438;-79
2023/11/19 00:17:11;;;;;;;0.70;0.70;;;;;;;7.18;90.42;98455.34;4979138;28;20915;-80
2023/11/19 00:19:37;;;;;;;0.70;0.70;;;;;;;7.15;91.05;98454.38;4963521;28;20121;-81
2023/11/19 00:22:03;;;;;;;0.70;0.70;;;;;;;7.17;91.35;98437.63;4978152;28;20411;-79
2023/11/19 00:24:30;;;;;;;0.70;0.70;;;;;;;7.16;91.67;98435.84;4980036;28;20029;-80
2023/11/19 00:26:59;;;;;;;0.75;0.75;;;;;;;7.15;91.52;98451.72;4978384;28;20038;-81
2023/11/19 00:29:24;;;;;;;0.70;0.70;;;;;;;7.14;92.45;98444.59;4980383;28;20185;-80
2023/11/19 00:31:50;;;;;;;0.70;0.70;;;;;;;7.15;92.82;98441.09;4977720;28;20122;-80
2023/11/19 00:34:15;;;;;;;0.60;0.60;;;;;;;7.20;92.63;98440.44;4979755;28;20034;-80
2023/11/19 00:36:41;;;;;;;0.60;0.60;;;;;;;7.25;92.32;98443.25;4993752;28;20396;-79
2023/11/19 00:39:06;;;;;;;0.70;0.70;;;;;;;7.26;92.50;98437.09;4976957;28;20031;-80
2023/11/19 00:41:35;;;;;;;0.60;0.60;;;;;;;7.28;92.40;98434.47;4963995;28;20058;-80
2023/11/19 00:44:00;;;;;;;0.73;0.73;;;;;;;7.30;92.76;98432.81;4968922;28;20042;-80
2023/11/19 00:46:26;;;;;;;0.80;0.80;;;;;;;7.29;92.68;98429.25;4979467;28;20046;-80
2023/11/19 00:48:51;;;;;;;0.70;0.70;;;;;;;7.29;93.15;98426.59;4964208;28;20117;-80
2023/11/19 00:51:17;;;;;;;0.70;0.70;;;;;;;7.27;93.60;98433.59;4982492;28;20440;-79
2023/11/19 00:53:42;;;;;;;0.70;0.70;;;;;;;7.28;93.31;98434.47;4984141;28;20042;-79
2023/11/19 00:56:08;;;;;;;0.70;0.70;;;;;;;7.32;93.88;98439.06;4979861;28;20157;-79
2023/11/19 00:58:34;;;;;;;0.70;0.70;;;;;;;7.37;93.84;98433.06;4982057;28;20053;-79
2023/11/19 01:01:00;;;;;;;0.60;0.60;;;;;;;7.43;93.75;98422.69;4968334;28;20488;-79
2023/11/19 01:03:25;;;;;;;0.70;0.70;;;;;;;7.43;93.98;98422.69;4976719;28;20102;-79
2023/11/19 01:05:52;;;;;;;0.70;0.70;;;;;;;7.48;93.62;98420.22;4976286;28;20370;-78
2023/11/19 01:08:20;;;;;;;0.70;0.70;;;;;;;7.53;93.81;98412.41;4982425;28;20092;-79
2023/11/19 01:10:45;;;;;;;0.77;0.77;;;;;;;7.54;93.87;98403.59;4977471;28;20034;-79
2023/11/19 01:13:11;;;;;;;0.70;0.70;;;;;;;7.53;93.68;98412.41;4976633;28;20030;-78
2023/11/19 01:15:36;;;;;;;0.60;0.60;;;;;;;7.57;93.98;98406.34;4982581;28;20035;-79
2023/11/19 01:18:04;;;;;;;0.70;0.70;;;;;;;7.58;93.91;98403.75;4976463;28;20429;-80
2023/11/19 01:20:31;;;;;;;0.70;0.70;;;;;;;7.58;93.75;98394.91;4981103;28;20245;-79
2023/11/19 01:22:56;;;;;;;0.60;0.60;;;;;;;7.65;94.04;98389.84;4977592;28;20397;-80
2023/11/19 01:25:22;;;;;;;0.70;0.70;;;;;;;7.67;94.17;98390.81;4977339;28;20510;-79
2023/11/19 01:27:47;;;;;;;0.70;0.70;;;;;;;7.71;94.22;98394.47;4967958;28;20398;-80
2023/11/19 01:30:13;;;;;;;0.70;0.70;;;;;;;7.72;94.06;98380.34;4966856;28;20027;-79
2023/11/19 01:32:41;;;;;;;0.63;0.63;;;;;;;7.76;94.35;98384.94;4980084;28;20030;-80
2023/11/19 01:35:07;;;;;;;0.70;0.70;;;;;;;7.86;94.05;98384.38;4974175;28;20078;-80
2023/11/19 01:37:34;;;;;;;0.70;0.70;;;;;;;7.81;94.05;98380.69;4978708;28;20549;-79
2023/11/19 01:40:00;;;;;;;0.68;0.68;;;;;;;7.82;94.31;98387.78;4977241;28;20046;-80
2023/11/19 01:42:25;;;;;;;0.60;0.60;;;;;;;7.92;94.28;98383.69;4974969;28;20039;-79
2023/11/19 01:45:01;;;;;;;0.60;0.60;;;;;;;7.93;94.39;98385.47;4976499;28;20069;-80
2023/11/19 01:47:30;;;;;;;0.60;0.60;;;;;;;7.93;94.59;98391.69;4983866;28;20034;-80
2023/11/19 01:49:57;;;;;;;0.60;0.60;;;;;;;7.93;94.47;98382.84;4979651;28;20045;-79
2023/11/19 01:52:23;;;;;;;0.70;0.70;;;;;;;8.08;94.04;98377.13;4976529;28;20085;-79
2023/11/19 01:54:50;;;;;;;0.70;0.70;;;;;;;8.06;94.30;98381.50;4981810;28;20038;-79
2023/11/19 01:57:15;;;;;;;0.75;0.75;;;;;;;8.14;94.12;98378.22;4977276;28;20284;-79
2023/11/19 01:59:41;;;;;;;0.70;0.70;;;;;;;8.10;94.06;98365.72;4978807;28;20109;-80
2023/11/19 02:02:07;;;;;;;0.70;0.70;;;;;;;8.08;94.61;98363.84;4996083;22;20140;-75
2023/11/19 02:04:34;;;;;;;0.60;0.60;;;;;;;8.09;94.44;98365.63;4999169;28;20034;-75
2023/11/19 02:07:00;;;;;;;0.60;0.60;;;;;;;8.08;94.65;98369.16;5001767;28;20040;-75
2023/11/19 02:09:26;;;;;;;0.70;0.70;;;;;;;8.07;95.11;98373.56;4995520;28;20153;-75
2023/11/19 02:11:53;;;;;;;0.60;0.60;;;;;;;8.10;94.87;98373.69;4979688;28;20083;-76
2023/11/19 02:14:21;;;;;;;;;;;;;;;8.12;94.86;98373.72;4995403;28;20045;-77
2023/11/19 02:16:47;;;;;;;0.70;0.70;;;;;;;8.10;95.05;98367.47;5010684;28;19917;-78
2023/11/19 02:19:13;;;;;;;0.60;0.60;;;;;;;8.13;95.30;98364.88;5002708;28;20044;-77
2023/11/19 02:21:38;;;;;;;0.60;0.60;;;;;;;8.16;94.99;98370.31;4994094;28;20038;-77
2023/11/19 02:24:07;;;;;;;0.68;0.68;;;;;;;8.17;95.15;98366.81;4993357;28;20034;-76
2023/11/19 02:26:46;;;;;;;0.60;0.60;;;;;;;8.16;95.34;98360.59;5003360;28;20442;-77
2023/11/19 02:29:13;;;;;;;0.65;0.65;;;;;;;8.22;95.10;98352.81;5010111;28;20396;-76
2023/11/19 02:31:38;;;;;;;0.60;0.60;;;;;;;8.23;95.15;98349.28;5001500;28;20108;-76
2023/11/19 02:34:03;;;;;;;0.60;0.60;;;;;;;8.19;95.49;98335.84;5011054;28;20137;-76
2023/11/19 02:36:29;;;;;;;0.60;0.60;;;;;;;8.13;95.29;98352.50;4999033;28;20081;-76
2023/11/19 02:38:55;;;;;;;0.60;0.60;;;;;;;8.20;95.21;98349.22;5001782;28;20033;-77
2023/11/19 02:41:20;;;;;;;0.60;0.60;;;;;;;8.10;94.93;98352.44;4997971;28;20038;-77
2023/11/19 02:43:48;;;;;;;0.60;0.60;;;;;;;8.09;95.06;98355.00;4998209;28;20471;-76
2023/11/19 02:46:14;;;;;;;0.60;0.60;;;;;;;8.07;95.17;98354.06;4996818;28;20100;-77
2023/11/19 02:48:40;;;;;;;0.60;0.60;;;;;;;8.12;95.23;98353.38;4995261;28;20725;-77
2023/11/19 02:51:09;;;;;;;0.60;0.60;;;;;;;8.14;95.15;98353.41;4994998;28;20482;-77
2023/11/19 02:53:35;;;;;;;0.50;0.50;;;;;;;8.17;95.13;98350.84;4997814;28;20041;-77
2023/11/19 02:56:06;;;;;;;0.60;0.60;;;;;;;8.22;95.08;98347.50;4996316;28;20030;-77
2023/11/19 02:58:32;;;;;;;0.55;0.55;;;;;;;8.15;94.83;98357.91;5000586;28;20494;-77
2023/11/19 03:00:57;;;;;;;0.55;0.55;;;;;;;8.15;95.54;98348.16;4995088;28;20034;-77
2023/11/19 03:03:38;;;;;;;0.60;0.60;;;;;;;8.28;94.86;98354.75;5000771;28;20041;-77
2023/11/19 03:06:09;;;;;;;0.60;0.60;;;;;;;8.23;95.23;98351.03;5002698;28;20068;-77
2023/11/19 03:08:36;;;;;;;0.60;0.60;;;;;;;8.20;94.77;98353.63;5002989;28;20054;-77
2023/11/19 03:11:02;;;;;;;0.60;0.60;;;;;;;8.24;95.12;98366.16;5005839;28;20476;-77
2023/11/19 03:13:27;;;;;;;0.60;0.60;;;;;;;8.30;94.71;98366.34;5001734;28;20053;-77
2023/11/19 03:15:53;;;;;;;0.60;0.60;;;;;;;8.28;94.93;98357.41;5003448;28;20450;-77
2023/11/19 03:18:19;;;;;;;0.60;0.60;;;;;;;8.27;94.54;98355.59;5002521;28;20034;-77
2023/11/19 03:20:46;;;;;;;0.68;0.68;;;;;;;8.27;94.83;98347.63;5003200;28;20478;-77
2023/11/19 03:23:13;;;;;;;0.60;0.60;;;;;;;8.24;94.83;98344.91;5000118;28;20033;-77
2023/11/19 03:25:38;;;;;;;0.60;0.60;;;;;;;8.21;94.65;98356.31;4999276;28;20804;-77
2023/11/19 03:28:04;;;;;;;0.60;0.60;;;;;;;8.26;94.77;98352.91;5008766;28;20483;-77
2023/11/19 03:30:30;;;;;;;0.52;0.52;;;;;;;8.26;94.93;98347.59;5002321;28;20041;-77
2023/11/19 03:32:56;;;;;;;0.60;0.60;;;;;;;8.30;94.79;98345.09;5001336;28;20125;-77
2023/11/19 03:35:25;;;;;;;0.60;0.60;;;;;;;8.29;94.75;98355.66;5017830;28;20061;-77
2023/11/19 03:37:51;;;;;;;0.60;0.60;;;;;;;8.21;94.69;98343.03;4999847;28;20655;-77
2023/11/19 03:40:18;;;;;;;0.50;0.50;;;;;;;8.22;95.57;98325.31;5001815;28;20022;-77
2023/11/19 03:42:44;;;;;;;0.60;0.60;;;;;;;8.22;95.59;98320.00;5002660;28;20116;-77
2023/11/19 03:45:09;;;;;;;0.70;0.70;;;;;;;8.31;95.46;98320.31;5019689;28;20109;-77
2023/11/19 03:47:35;;;;;;;0.60;0.60;;;;;;;8.28;95.90;98314.88;5004274;28;20116;-77
2023/11/19 03:50:02;;;;;;;0.60;0.60;;;;;;;8.34;95.80;98317.75;5002590;28;20495;-77
2023/11/19 03:52:28;;;;;;;0.60;0.60;;;;;;;8.35;95.95;98311.59;5006515;28;20040;-77
2023/11/19 03:54:55;;;;;;;0.70;0.70;;;;;;;8.39;96.13;98313.50;5004964;28;20033;-77
2023/11/19 03:57:21;;;;;;;0.55;0.55;;;;;;;8.40;96.09;98307.34;4987736;28;20448;-77
2023/11/19 03:59:47;;;;;;;0.60;0.60;;;;;;;8.42;96.30;98307.38;4993218;28;20040;-77
2023/11/19 04:02:13;;;;;;;0.60;0.60;;;;;;;8.41;96.01;98301.16;5017355;28;20391;-76
2023/11/19 04:04:39;;;;;;;0.60;0.60;;;;;;;8.43;96.22;98291.50;4991268;28;20383;-76
2023/11/19 04:07:05;;;;;;;0.60;0.60;;;;;;;8.48;96.07;98289.88;5002062;28;20034;-76
2023/11/19 04:09:32;;;;;;;0.50;0.50;;;;;;;8.54;96.34;98289.16;5000910;28;20025;-77
2023/11/19 04:11:58;;;;;;;0.60;0.60;;;;;;;8.59;96.16;98283.97;5015851;28;20033;-77
2023/11/19 04:14:24;;;;;;;0.60;0.60;;;;;;;8.60;95.97;98289.31;5003557;28;20057;-76
2023/11/19 04:16:50;;;;;;;0.60;0.60;;;;;;;8.58;95.99;98293.72;4998399;28;20379;-76
2023/11/19 04:19:16;;;;;;;0.60;0.60;;;;;;;8.59;95.89;98299.94;5000185;28;20033;-76
2023/11/19 04:21:42;;;;;;;0.50;0.50;;;;;;;8.66;95.90;98296.56;4995300;28;20049;-76
2023/11/19 04:24:08;;;;;;;0.68;0.68;;;;;;;8.66;96.33;98297.47;4999893;28;20033;-76
2023/11/19 04:26:34;;;;;;;0.60;0.60;;;;;;;8.68;96.07;98285.16;4999568;28;20034;-76
2023/11/19 04:29:00;;;;;;;0.60;0.60;;;;;;;8.73;96.02;98285.28;4987338;28;20360;-76
2023/11/19 04:31:31;;;;;;;0.60;0.60;;;;;;;8.76;96.12;98298.66;4987601;28;20030;-76
2023/11/19 04:33:56;;;;;;;0.60;0.60;;;;;;;8.72;96.09;98296.78;4998499;28;20372;-76
2023/11/19 04:36:24;;;;;;;0.60;0.60;;;;;;;8.76;96.03;98287.09;4999724;28;20517;-76
2023/11/19 04:38:49;;;;;;;0.60;0.60;;;;;;;8.86;96.07;98287.44;4998304;28;20110;-76
2023/11/19 04:41:15;;;;;;;0.60;0.60;;;;;;;8.81;95.91;98277.50;5000539;28;20042;-76
2023/11/19 04:43:40;;;;;;;0.50;0.50;;;;;;;8.86;95.92;98289.16;5000694;28;20768;-75
2023/11/19 04:46:06;;;;;;;0.60;0.60;;;;;;;8.84;96.14;98291.78;5000890;28;20113;-77
2023/11/19 04:48:31;;;;;;;0.50;0.50;;;;;;;8.82;96.02;98293.53;4997333;28;20022;-77
2023/11/19 04:50:57;;;;;;;0.60;0.60;;;;;;;8.86;96.08;98297.16;5000404;28;20062;-77
2023/11/19 04:53:22;;;;;;;0.60;0.60;;;;;;;8.89;96.17;98300.81;4997342;28;20145;-75
2023/11/19 04:55:48;;;;;;;0.60;0.60;;;;;;;8.87;95.56;98293.66;4997164;28;20032;-77
2023/11/19 04:58:13;;;;;;;0.60;0.60;;;;;;;9.00;95.25;98293.13;4995831;28;20042;-76
2023/11/19 05:00:40;;;;;;;0.60;0.60;;;;;;;8.85;95.36;98293.59;4999670;28;20060;-76
2023/11/19 05:03:06;;;;;;;0.60;0.60;;;;;;;8.88;95.81;98301.69;4998386;28;20392;-76
2023/11/19 05:05:31;;;;;;;0.60;0.60;;;;;;;8.94;95.95;98300.94;4994717;28;20080;-76
2023/11/19 05:07:57;;;;;;;0.52;0.52;;;;;;;9.07;95.96;98295.13;4998251;28;20046;-76
2023/11/19 05:10:22;;;;;;;0.60;0.60;;;;;;;9.11;95.92;98288.13;5001237;28;20033;-76
2023/11/19 05:12:48;;;;;;;0.60;0.60;;;;;;;9.15;95.85;98295.31;4996350;28;20120;-76
2023/11/19 05:15:14;;;;;;;0.50;0.50;;;;;;;9.15;95.87;98293.59;4999710;28;20129;-76
2023/11/19 05:17:39;;;;;;;0.60;0.60;;;;;;;9.27;96.00;98298.31;5000028;28;20462;-76
2023/11/19 05:20:12;;;;;;;0.60;0.60;;;;;;;9.19;95.86;98295.44;4983951;28;20046;-76
2023/11/19 05:22:39;;;;;;;0.57;0.57;;;;;;;9.19;95.80;98294.53;4997355;28;20045;-76
2023/11/19 05:25:05;;;;;;;0.50;0.50;;;;;;;9.32;95.78;98307.34;4998455;28;20046;-76
2023/11/19 05:27:31;;;;;;;0.50;0.50;;;;;;;9.50;95.76;98288.28;4993337;28;20054;-76
2023/11/19 05:29:56;;;;;;;0.57;0.57;;;;;;;9.46;95.24;98292.63;4995275;28;20499;-76
2023/11/19 05:32:22;;;;;;;0.60;0.60;;;;;;;9.63;94.43;98284.16;4996761;28;20038;-76
2023/11/19 05:34:47;;;;;;;0.60;0.60;;;;;;;9.62;93.85;98291.25;5012540;28;20038;-76
2023/11/19 05:37:12;;;;;;;0.57;0.57;;;;;;;9.68;93.82;98285.22;4997094;28;20045;-76
2023/11/19 05:39:38;;;;;;;0.60;0.60;;;;;;;9.72;93.56;98277.31;4996473;28;20041;-76
2023/11/19 05:42:03;;;;;;;0.50;0.50;;;;;;;9.81;93.80;98287.28;4997496;28;20038;-75
2023/11/19 05:44:29;;;;;;;0.50;0.50;;;;;;;9.82;93.28;98290.84;4995870;28;20041;-76
2023/11/19 05:46:54;;;;;;;0.50;0.50;;;;;;;9.87;93.06;98292.81;4996545;28;20041;-75
2023/11/19 05:49:20;;;;;;;0.50;0.50;;;;;;;9.93;92.47;98298.28;4997416;28;20176;-76
2023/11/19 05:51:46;;;;;;;0.52;0.52;;;;;;;9.94;92.63;98291.19;4997511;28;20035;-76
2023/11/19 05:54:13;;;;;;;0.50;0.50;;;;;;;9.93;92.95;98300.94;4996571;28;20030;-75
2023/11/19 05:56:38;;;;;;;0.60;0.60;;;;;;;9.95;92.46;98287.63;5002144;28;20104;-76
2023/11/19 05:59:07;;;;;;;0.43;0.43;;;;;;;9.97;92.40;98292.16;4998884;28;20172;-76
2023/11/19 06:01:35;;;;;;;0.50;0.50;;;;;;;9.92;92.47;98293.81;4992881;28;20037;-75
2023/11/19 06:04:01;;;;;;;0.50;0.50;;;;;;;9.91;92.63;98297.31;4996985;28;20061;-75
2023/11/19 06:06:27;;;;;;;0.50;0.50;;;;;;;10.02;92.17;98298.50;4994661;28;20167;-75
2023/11/19 06:08:53;;;;;;;0.50;0.50;;;;;;;10.12;91.98;98288.97;5011647;28;20034;-75
2023/11/19 06:11:20;;;;;;;0.50;0.50;;;;;;;10.25;90.85;98290.16;4997521;28;20029;-74
2023/11/19 06:13:46;;;;;;;0.60;0.60;;;;;;;10.38;90.51;98292.25;4996659;28;20069;-74
2023/11/19 06:16:12;;;;;;;0.55;0.55;;;;;;;10.27;90.40;98286.69;4993736;28;20108;-75
2023/11/19 06:18:37;;;;;;;0.60;0.60;;;;;;;10.34;90.29;98285.03;4999218;28;20060;-75
2023/11/19 06:21:03;;;;;;;0.50;0.50;;;;;;;10.20;90.65;98278.44;4995077;28;20041;-75
2023/11/19 06:23:28;;;;;;;0.50;0.50;;;;;;;10.34;90.64;98294.81;4991842;28;20034;-75
2023/11/19 06:25:54;;;;;;;0.50;0.50;;;;;;;10.41;90.01;98287.00;4994984;28;20030;-75
2023/11/19 06:28:19;;;;;;;0.52;0.52;;;;;;;10.51;89.48;98290.78;4996677;28;20031;-75
2023/11/19 06:30:45;;;;;;;0.50;0.50;;;;;;;10.51;89.59;98283.66;4995588;28;20062;-75
2023/11/19 06:33:14;;;;;;;0.50;0.50;;;;;;;10.43;89.86;98295.03;4995383;28;20534;-75
2023/11/19 06:35:40;;;;;;;0.50;0.50;;;;;;;10.31;90.25;98301.00;4996969;28;20112;-75
2023/11/19 06:38:05;;;;;;;0.50;0.50;;;;;;;10.38;89.84;98294.03;4996013;28;20108;-75
2023/11/19 06:40:32;;;;;;;0.60;0.60;;;;;;;10.37;90.25;98295.78;5010052;28;20392;-75
2023/11/19 06:42:58;;;;;;;0.57;0.57;;;;;;;10.24;90.54;98280.38;4995394;28;20045;-75
2023/11/19 06:45:24;;;;;;;0.50;0.50;;;;;;;10.27;90.48;98299.13;4998177;28;20026;-75
2023/11/19 06:47:49;;;;;;;0.50;0.50;;;;;;;10.26;91.01;98305.31;4995678;28;20425;-75
2023/11/19 06:50:15;;;;;;;0.50;0.50;;;;;;;10.32;91.02;98297.44;4992551;28;20053;-75
2023/11/19 06:52:41;;;;;;;0.55;0.55;;;;;;;10.33;91.21;98301.91;4997453;28;20038;-76
2023/11/19 06:55:07;;;;;;;0.50;0.50;;;;;;;10.33;90.68;98301.91;4997823;28;20030;-75
2023/11/19 06:57:32;;;;;;;0.50;0.50;;;;;;;10.49;90.19;98300.47;4994930;28;20038;-76
2023/11/19 06:59:58;;;;;;;0.57;0.57;;;;;;;10.63;89.94;98298.13;4997337;28;20049;-76
2023/11/19 07:02:24;;;;;;;0.50;0.50;;;;;;;10.60;89.79;98308.75;4993676;28;20057;-76
2023/11/19 07:04:51;;;;;;;0.60;0.60;;;;;;;10.57;89.94;98298.91;4995556;28;20045;-76
2023/11/19 07:07:16;;;;;;;0.50;0.50;;;;;;;10.65;89.67;98304.41;4995492;28;20077;-76
2023/11/19 07:09:42;;;;;;;0.50;0.50;;;;;;;10.72;88.95;98303.66;4995328;28;20061;-76
2023/11/19 07:12:08;;;;;;;0.50;0.50;;;;;;;10.66;89.20;98306.22;4995217;28;20053;-76
2023/11/19 07:14:34;;;;;;;0.60;0.60;;;;;;;10.65;89.75;98317.75;4994630;28;20049;-76
2023/11/19 07:17:00;;;;;;;0.50;0.50;;;;;;;10.77;88.89;98313.56;4995369;28;20035;-76
2023/11/19 07:19:26;;;;;;;0.50;0.50;;;;;;;10.62;89.95;98313.22;4993273;28;20022;-76
2023/11/19 07:21:53;;;;;;;0.50;0.50;;;;;;;10.64;89.32;98326.63;4995269;28;20073;-76
2023/11/19 07:24:19;;;;;;;0.50;0.50;;;;;;;10.64;89.43;98327.53;4997998;28;20038;-76
2023/11/19 07:26:47;;;;;;;0.50;0.50;;;;;;;10.68;89.53;98334.75;4997251;28;20042;-76
2023/11/19 07:29:13;;;;;;;0.50;0.50;;;;;;;10.69;89.51;98338.31;4999593;28;20372;-76
2023/11/19 07:31:38;;;;;;;0.50;0.50;;;;;;;10.84;88.85;98343.06;4994678;28;20033;-76
2023/11/19 07:34:06;;;;;;;0.50;0.50;;;;;;;10.85;88.93;98343.09;4995578;28;20026;-77
2023/11/19 07:36:32;;;;;;;;;;;;;;;10.97;88.07;98346.03;5001053;28;20035;-76
2023/11/19 07:38:58;;;;;;;0.50;0.50;;;;;;;10.89;88.87;98346.75;4994728;28;19914;-76
2023/11/19 07:41:25;;;;;;;0.50;0.50;;;;;;;11.04;87.96;98345.28;4997257;28;20030;-76
2023/11/19 07:43:51;;;;;;;0.55;0.55;;;;;;;10.96;88.37;98346.00;4998131;28;20443;-76
2023/11/19 07:46:19;;;;;;;0.50;0.50;;;;;;;10.85;88.93;98340.44;4994545;28;20033;-75
2023/11/19 07:48:46;;;;;;;0.50;0.50;;;;;;;10.80;88.82;98350.09;4994591;28;20057;-75
2023/11/19 07:51:13;;;;;;;0.50;0.50;;;;;;;10.99;88.37;98346.06;5003687;28;20037;-75
2023/11/19 07:53:39;;;;;;;0.50;0.50;;;;;;;10.96;88.52;98349.56;4999893;28;20030;-76
2023/11/19 07:56:05;;;;;;;0.50;0.50;;;;;;;11.04;87.79;98337.28;4999214;28;20855;-76
2023/11/19 07:58:31;;;;;;;0.50;0.50;;;;;;;11.05;87.74;98341.75;4999208;28;20183;-75
2023/11/19 08:00:56;;;;;;;0.43;0.43;;;;;;;10.96;87.98;98338.88;4999331;28;20034;-76
2023/11/19 08:03:22;;;;;;;0.50;0.50;;;;;;;11.18;87.19;98339.34;4997308;28;20034;-76
2023/11/19 08:05:48;;;;;;;0.60;0.60;;;;;;;11.10;87.93;98340.94;4997550;28;20152;-76
2023/11/19 08:08:14;;;;;;;0.50;0.50;;;;;;;11.10;88.15;98333.84;4997773;28;21083;-76
2023/11/19 08:10:40;;;;;;;0.52;0.52;;;;;;;11.14;88.27;98337.47;5001033;28;20796;-76
2023/11/19 08:13:07;;;;;;;0.60;0.60;;;;;;;11.06;88.42;98339.97;4997480;28;20034;-76
2023/11/19 08:15:33;;;;;;;0.60;0.60;;;;;;;11.13;88.47;98341.91;5000712;28;20040;-76
2023/11/19 08:17:58;;;;;;;0.50;0.50;;;;;;;11.07;88.84;98349.81;4981855;28;20033;-76
2023/11/19 08:20:24;;;;;;;0.60;0.60;;;;;;;11.03;89.44;98338.16;5001215;28;20034;-76
2023/11/19 08:22:49;;;;;;;0.57;0.57;;;;;;;11.14;89.27;98337.47;4998060;28;20022;-77
2023/11/19 08:25:15;;;;;;;0.50;0.50;;;;;;;11.04;89.11;98344.41;5000446;28;20057;-77
2023/11/19 08:27:40;;;;;;;0.50;0.50;;;;;;;11.00;89.76;98351.44;4997983;28;20033;-77
2023/11/19 08:30:06;;;;;;;0.50;0.50;;;;;;;11.02;90.17;98338.13;4996114;28;20030;-76
2023/11/19 08:32:32;;;;;;;0.50;0.50;;;;;;;11.31;88.43;98333.38;4998514;28;20034;-76
2023/11/19 08:34:58;;;;;;;0.50;0.50;;;;;;;11.18;88.29;98342.00;4997951;28;20045;-76
2023/11/19 08:37:23;;;;;;;0.50;0.50;;;;;;;11.13;88.81;98343.69;4999146;28;20034;-77
2023/11/19 08:39:50;;;;;;;0.50;0.50;;;;;;;11.17;88.68;98333.09;5000235;28;20084;-76
2023/11/19 08:42:19;;;;;;;0.55;0.55;;;;;;;11.16;89.82;98351.75;4996344;28;20036;-76
2023/11/19 08:44:50;;;;;;;0.50;0.50;;;;;;;11.18;89.48;98347.34;4998759;28;20476;-76
2023/11/19 08:47:17;;;;;;;0.50;0.50;;;;;;;11.28;88.22;98344.00;4999259;28;20038;-76
2023/11/19 08:49:44;;;;;;;0.50;0.50;;;;;;;11.25;88.24;98328.78;4996017;28;20036;-76
2023/11/19 08:52:10;;;;;;;0.47;0.47;;;;;;;11.34;87.92;98343.22;4979291;28;20064;-76
2023/11/19 08:54:41;;;;;;;0.40;0.40;;;;;;;11.28;87.98;98339.56;4998957;28;20468;-77
2023/11/19 08:57:08;;;;;;;0.50;0.50;;;;;;;11.27;88.76;98345.78;5003010;28;20034;-77
2023/11/19 08:59:41;;;;;;;0.50;0.50;;;;;;;11.41;87.58;98353.16;4997553;28;20483;-77
2023/11/19 09:02:08;;;;;;;0.40;0.40;;;;;;;11.22;88.74;98362.56;4996107;28;20491;-77
2023/11/19 09:04:33;;;;;;;0.40;0.40;;;;;;;11.25;88.50;98382.22;5004081;28;20025;-77
2023/11/19 09:06:59;;;;;;;0.43;0.43;;;;;;;11.43;88.10;98379.03;5003759;28;20440;-78
2023/11/19 09:09:25;;;;;;;0.50;0.50;;;;;;;11.43;88.74;98386.13;4996349;28;20561;-78
2023/11/19 09:11:50;;;;;;;0.50;0.50;;;;;;;11.60;88.00;98378.47;4996750;28;20034;-77
2023/11/19 09:14:18;;;;;;;0.50;0.50;;;;;;;11.61;87.98;98390.94;4998696;28;20121;-77
2023/11/19 09:16:43;;;;;;;0.50;0.50;;;;;;;11.52;89.16;98380.97;5001949;28;20032;-76
2023/11/19 09:19:09;;;;;;;0.40;0.40;;;;;;;11.38;89.32;98388.72;4999429;28;20033;-77
2023/11/19 09:21:37;;;;;;;0.40;0.40;;;;;;;11.42;89.12;98393.25;4996648;28;20033;-77
2023/11/19 09:24:03;;;;;;;0.47;0.47;;;;;;;11.58;88.94;98389.09;4997182;28;20042;-76
2023/11/19 09:26:28;;;;;;;0.40;0.40;;;;;;;11.72;88.52;98390.28;4995509;28;20100;-76
2023/11/19 09:28:54;;;;;;;0.50;0.50;;;;;;;11.71;89.01;98387.59;4995930;28;20042;-77
2023/11/19 09:31:19;;;;;;;0.40;0.40;;;;;;;11.69;87.83;98395.59;4995528;28;20114;-76
2023/11/19 09:33:47;;;;;;;0.40;0.40;;;;;;;11.59;88.62;98396.25;4999516;28;20072;-76
2023/11/19 09:36:16;;;;;;;0.40;0.40;;;;;;;11.51;89.25;98412.13;4994860;28;20038;-76
2023/11/19 09:38:45;;;;;;;0.50;0.50;;;;;;;11.58;89.39;98397.13;4997085;28;20754;-76
2023/11/19 09:41:13;;;;;;;0.40;0.40;;;;;;;11.61;90.19;98388.28;4995495;28;20570;-76
2023/11/19 09:43:42;;;;;;;0.40;0.40;;;;;;;11.71;89.89;98388.47;4995719;28;20476;-76
2023/11/19 09:46:13;;;;;;;0.40;0.40;;;;;;;11.72;89.87;98382.25;4997127;28;20026;-76
2023/11/19 09:48:42;;;;;;;0.40;0.40;;;;;;;11.72;90.35;98378.69;4996211;28;20034;-76
2023/11/19 09:51:09;;;;;;;0.40;0.40;;;;;;;11.63;89.97;98378.50;4996557;28;20375;-76
2023/11/19 09:53:36;;;;;;;;;;;;;;;11.59;90.47;98379.31;4996707;28;20038;-76
2023/11/19 09:56:05;;;;;;;0.60;0.60;;;;;;;11.62;90.12;98387.41;4996661;28;19941;-76
2023/11/19 09:58:32;;;;;;;0.47;0.47;;;;;;;11.62;89.79;98392.75;4993863;28;20034;-77
2023/11/19 10:00:59;;;;;;;0.45;0.45;;;;;;;11.72;89.40;98400.06;4994670;28;20034;-77
2023/11/19 10:03:27;;;;;;;0.50;0.50;;;;;;;11.73;89.64;98397.41;4994954;28;20122;-76
2023/11/19 10:05:55;;;;;;;0.50;0.50;;;;;;;11.88;89.17;98395.94;4996593;28;20058;-77
2023/11/19 10:08:20;;;;;;;0.50;0.50;;;;;;;11.91;88.98;98398.69;4995263;28;20083;-78
2023/11/19 10:10:47;;;;;;;0.50;0.50;;;;;;;12.15;88.64;98398.22;4992274;28;20804;-77
2023/11/19 10:13:14;;;;;;;0.57;0.57;;;;;;;12.61;87.32;98396.31;4993045;28;20371;-78
2023/11/19 10:15:40;;;;;;;;;;;;;;;12.76;86.72;98386.72;4997127;28;20033;-78
2023/11/19 10:18:05;;;;;;;0.43;0.43;;;;;;;12.75;86.35;98390.28;4996334;28;20441;-78
2023/11/19 10:20:37;;;;;;;0.40;0.40;;;;;;;12.70;85.86;98380.41;4992611;28;20053;-77
2023/11/19 10:23:03;;;;;;;0.40;0.40;;;;;;;12.55;86.86;98375.69;4992335;28;20029;-77
2023/11/19 10:25:29;;;;;;;0.40;0.40;;;;;;;12.96;85.30;98373.63;4997068;28;20044;-77
2023/11/19 10:27:56;;;;;;;0.40;0.40;;;;;;;12.64;86.30;98374.94;4997609;28;20026;-76
2023/11/19 10:30:23;;;;;;;0.40;0.40;;;;;;;12.97;85.52;98379.88;4996872;28;20030;-77
2023/11/19 10:33:07;;;;;;;0.40;0.40;;;;;;;12.73;85.63;98369.72;4995369;28;20543;-77
2023/11/19 10:35:34;;;;;;;0.40;0.40;;;;;;;12.72;86.46;98367.94;4993974;28;20041;-77
2023/11/19 10:38:01;;;;;;;0.40;0.40;;;;;;;12.63;86.61;98373.13;4982719;28;20916;-77
2023/11/19 10:40:42;;;;;;;0.40;0.40;;;;;;;12.64;86.90;98366.91;5009854;28;20070;-77
2023/11/19 10:43:08;;;;;;;0.40;0.40;;;;;;;12.78;85.50;98366.22;4981598;28;20037;-78
2023/11/19 10:45:38;;;;;;;0.40;0.40;;;;;;;13.05;85.23;98359.47;4988267;28;20095;-78
2023/11/19 10:48:08;;;;;;;0.40;0.40;;;;;;;12.93;86.07;98362.84;4990914;28;20069;-78
2023/11/19 10:50:35;;;;;;;0.30;0.30;;;;;;;12.77;85.09;98363.53;4990030;28;20049;-77
2023/11/19 10:53:03;;;;;;;0.40;0.40;;;;;;;12.70;85.34;98364.34;4994478;28;20419;-77
2023/11/19 10:55:32;;;;;;;;;;;;;;;12.66;85.18;98354.47;4992648;28;20030;-77
2023/11/19 10:58:01;;;;;;;0.40;0.40;;;;;;;12.62;84.58;98352.63;4995726;28;20331;-77
2023/11/19 11:00:31;;;;;;;0.50;0.50;;;;;;;14.20;79.31;98347.34;4987870;28;20042;-76
2023/11/19 11:03:01;;;;;;;0.40;0.40;;;;;;;14.91;74.49;98349.69;4991931;28;20603;-77
2023/11/19 11:05:26;;;;;;;0.40;0.40;;;;;;;15.30;73.56;98350.78;4994467;28;20031;-77
2023/11/19 11:07:56;;;;;;;0.30;0.30;;;;;;;14.83;74.34;98349.63;4988288;28;20568;-77
2023/11/19 11:10:26;;;;;;;0.30;0.30;;;;;;;15.96;70.08;98338.47;4991740;28;20037;-77
2023/11/19 11:12:57;;;;;;;0.40;0.40;;;;;;;16.76;67.49;98325.88;4992109;28;20208;-78
2023/11/19 11:15:27;;;;;;;0.30;0.30;;;;;;;15.94;68.79;98336.66;4990785;28;20042;-77
2023/11/19 11:17:57;;;;;;;0.30;0.30;;;;;;;15.03;71.92;98325.56;4993906;28;20022;-78
2023/11/19 11:20:22;;;;;;;0.40;0.40;;;;;;;16.50;69.08;98325.00;4987586;28;20644;-76
2023/11/19 11:23:24;;;;;;;0.30;0.30;;;;;;;15.56;70.53;98324.88;4985736;28;20050;-77
2023/11/19 11:26:01;;;;;;;0.30;0.30;;;;;;;15.34;70.44;98329.31;4994974;28;20558;-76
2023/11/19 11:28:45;;;;;;;0.30;0.30;;;;;;;15.51;70.99;98318.59;4991927;28;20038;-76
2023/11/19 11:31:44;;;;;;;0.40;0.40;;;;;;;16.76;67.04;98320.50;4990454;28;20117;-78
2023/11/19 11:34:16;;;;;;;0.30;0.30;;;;;;;17.00;64.07;98318.63;4998516;28;20033;-77
2023/11/19 11:37:07;;;;;;;0.50;0.50;;;;;;;16.25;64.61;98322.34;4990431;28;20065;-76